Time;durP1;ratioP1;P1;durP2;ratioP2;P2;SDS_P1;SDS_P2;PMS_P1;PMS_P2;Temp;Humidity;BMP_temperature;BMP_pressure;BME280_temperature;BME280_humidity;BME280_pressure;Samples;Min_cycle;Max_cycle;Signal;HPM_P1;HPM_P2
2021/06/14 00:01:55;;;;;;;10.13;4.50;;;;;;;;;;5051203;28;20021;-85
2021/06/14 00:04:20;;;;;;;9.23;4.40;;;;;;;;;;5051206;28;20483;-85
2021/06/14 00:06:46;;;;;;;8.93;4.30;;;;;;;;;;5051220;28;20087;-85
2021/06/14 00:09:14;;;;;;;10.63;4.72;;;;;;;;;;5051027;28;20029;-85
2021/06/14 00:11:39;;;;;;;11.88;4.75;;;;;;;;;;5052611;28;20025;-85
2021/06/14 00:14:04;;;;;;;9.57;4.78;;;;;;;;;;5050815;28;20028;-84
2021/06/14 00:16:30;;;;;;;13.25;4.55;;;;;;;;;;5052440;28;20052;-85
2021/06/14 00:18:55;;;;;;;12.05;4.57;;;;;;;;;;5052109;28;20070;-85
2021/06/14 00:21:21;;;;;;;9.70;5.20;;;;;;;;;;5050864;28;20099;-85
2021/06/14 00:23:46;;;;;;;12.90;4.55;;;;;;;;;;5073745;28;20490;-85
2021/06/14 00:26:12;;;;;;;9.95;4.18;;;;;;;;;;5050736;28;20029;-85
2021/06/14 00:28:38;;;;;;;8.48;4.68;;;;;;;;;;5050723;28;20029;-85
2021/06/14 00:31:03;;;;;;;12.65;5.00;;;;;;;;;;5050769;28;20100;-85
2021/06/14 00:33:28;;;;;;;10.63;5.10;;;;;;;;;;5050540;28;20032;-85
2021/06/14 00:35:54;;;;;;;11.40;4.78;;;;;;;;;;5050706;28;20103;-85
2021/06/14 00:38:19;;;;;;;13.23;5.20;;;;;;;;;;5051830;28;20036;-85
2021/06/14 00:40:45;;;;;;;9.02;4.95;;;;;;;;;;5050670;28;20017;-85
2021/06/14 00:43:11;;;;;;;15.50;4.95;;;;;;;;;;5050548;28;20453;-85
2021/06/14 00:45:38;;;;;;;15.10;4.85;;;;;;;;;;5050520;28;20035;-84
2021/06/14 00:48:04;;;;;;;8.38;5.00;;;;;;;;;;5049327;28;20017;-85
2021/06/14 00:50:34;;;;;;;10.80;4.93;;;;;;;;;;5050132;28;20081;-85
2021/06/14 00:53:00;;;;;;;10.65;4.70;;;;;;;;;;5050373;28;20029;-85
2021/06/14 00:55:25;;;;;;;12.10;5.65;;;;;;;;;;5073206;28;20495;-85
2021/06/14 00:57:50;;;;;;;10.60;5.75;;;;;;;;;;5050711;28;20411;-84
2021/06/14 01:00:16;;;;;;;18.10;5.93;;;;;;;;;;5050435;28;20095;-85
2021/06/14 01:02:41;;;;;;;10.02;5.07;;;;;;;;;;5051702;28;20017;-85
2021/06/14 01:05:08;;;;;;;16.35;5.53;;;;;;;;;;5050284;28;20104;-85
2021/06/14 01:07:34;;;;;;;12.77;5.35;;;;;;;;;;5051052;28;20500;-85
2021/06/14 01:10:00;;;;;;;8.65;4.85;;;;;;;;;;5054262;28;20028;-85
2021/06/14 01:12:28;;;;;;;9.52;4.88;;;;;;;;;;5054370;28;20036;-85
2021/06/14 01:14:53;;;;;;;8.20;5.38;;;;;;;;;;5054182;28;20020;-84
2021/06/14 01:17:18;;;;;;;14.23;5.40;;;;;;;;;;5054424;28;20100;-85
2021/06/14 01:19:59;;;;;;;15.66;5.24;;;;;;;;;;5054359;28;20021;-85
2021/06/14 01:22:33;;;;;;;9.27;4.78;;;;;;;;;;5084638;28;20020;-85
2021/06/14 01:25:17;;;;;;;8.43;4.95;;;;;;;;;;5054339;28;20028;-85
2021/06/14 01:27:48;;;;;;;8.70;4.70;;;;;;;;;;5053713;28;20490;-85
2021/06/14 01:30:14;;;;;;;8.65;4.70;;;;;;;;;;5086604;28;20029;-84
2021/06/14 01:32:40;;;;;;;14.45;5.50;;;;;;;;;;5054155;28;20029;-85
2021/06/14 01:35:07;;;;;;;8.73;5.10;;;;;;;;;;5053972;28;20086;-85
2021/06/14 01:37:33;;;;;;;11.52;5.00;;;;;;;;;;5053714;28;20036;-84
2021/06/14 01:39:59;;;;;;;10.25;5.47;;;;;;;;;;5054089;28;20464;-85
2021/06/14 01:42:25;;;;;;;10.57;5.28;;;;;;;;;;5053738;28;20021;-85
2021/06/14 01:44:50;;;;;;;16.92;6.13;;;;;;;;;;5053769;28;20028;-85
2021/06/14 01:47:16;;;;;;;13.80;5.53;;;;;;;;;;5053803;28;20033;-85
2021/06/14 01:49:41;;;;;;;13.73;6.35;;;;;;;;;;5053817;28;20410;-85
2021/06/14 01:52:06;;;;;;;12.48;5.57;;;;;;;;;;5055213;28;20131;-85
2021/06/14 01:54:32;;;;;;;9.73;5.47;;;;;;;;;;5086457;28;20025;-85
2021/06/14 01:56:58;;;;;;;13.43;5.63;;;;;;;;;;5053681;28;20021;-85
2021/06/14 01:59:27;;;;;;;11.80;5.20;;;;;;;;;;5053549;28;20020;-84
2021/06/14 02:01:53;;;;;;;12.35;6.15;;;;;;;;;;5053464;28;20033;-85
2021/06/14 02:04:18;;;;;;;13.93;6.00;;;;;;;;;;5053542;28;20025;-85
2021/06/14 02:06:44;;;;;;;9.27;5.57;;;;;;;;;;5053366;28;20029;-85
2021/06/14 02:09:11;;;;;;;14.50;6.38;;;;;;;;;;5053410;28;20017;-85
2021/06/14 02:11:39;;;;;;;11.95;6.35;;;;;;;;;;5053179;28;20427;-85
2021/06/14 02:14:05;;;;;;;10.63;6.07;;;;;;;;;;5053384;28;20024;-85
2021/06/14 02:16:30;;;;;;;11.48;5.97;;;;;;;;;;5053010;28;20028;-84
2021/06/14 02:18:56;;;;;;;9.70;5.97;;;;;;;;;;5052911;28;20021;-85
2021/06/14 02:21:21;;;;;;;13.50;6.75;;;;;;;;;;5054545;28;20009;-85
2021/06/14 02:23:46;;;;;;;14.82;6.82;;;;;;;;;;5053120;28;20024;-85
2021/06/14 02:26:11;;;;;;;11.88;6.57;;;;;;;;;;5053240;28;20028;-85
2021/06/14 02:28:37;;;;;;;18.15;6.85;;;;;;;;;;5052947;28;20013;-85
2021/06/14 02:31:03;;;;;;;15.48;7.00;;;;;;;;;;5054124;28;20086;-85
2021/06/14 02:33:28;;;;;;;15.27;6.88;;;;;;;;;;5052777;28;20021;-84
2021/06/14 02:35:53;;;;;;;12.48;6.55;;;;;;;;;;5052922;28;20029;-85
2021/06/14 02:38:19;;;;;;;11.77;6.78;;;;;;;;;;5053017;28;20021;-85
2021/06/14 02:40:44;;;;;;;12.05;6.13;;;;;;;;;;5077830;28;20349;-85
2021/06/14 02:43:09;;;;;;;10.73;6.25;;;;;;;;;;5052645;28;20025;-85
2021/06/14 02:45:36;;;;;;;16.05;7.10;;;;;;;;;;5052700;28;20070;-85
2021/06/14 02:48:01;;;;;;;17.20;6.45;;;;;;;;;;5052898;28;20116;-85
2021/06/14 02:50:27;;;;;;;13.82;7.13;;;;;;;;;;5052625;28;20115;-85
2021/06/14 02:52:54;;;;;;;14.18;6.10;;;;;;;;;;5052433;28;20063;-85
2021/06/14 02:55:25;;;;;;;12.05;6.65;;;;;;;;;;5078266;28;20025;-85
2021/06/14 02:57:52;;;;;;;13.55;6.68;;;;;;;;;;5050580;28;20032;-85
2021/06/14 03:00:17;;;;;;;14.20;6.70;;;;;;;;;;5051044;28;20044;-85
2021/06/14 03:02:43;;;;;;;14.90;7.05;;;;;;;;;;5052355;28;20033;-85
2021/06/14 03:05:09;;;;;;;16.40;6.28;;;;;;;;;;5053537;28;20021;-85
2021/06/14 03:07:34;;;;;;;15.00;6.97;;;;;;;;;;5052254;28;20443;-85
2021/06/14 03:09:59;;;;;;;17.63;6.78;;;;;;;;;;5053170;28;20040;-85
2021/06/14 03:12:25;;;;;;;14.93;6.57;;;;;;;;;;5052369;28;20085;-85
2021/06/14 03:14:51;;;;;;;17.60;6.80;;;;;;;;;;5052161;28;20040;-85
2021/06/14 03:17:17;;;;;;;15.85;6.40;;;;;;;;;;5052040;28;20435;-85
2021/06/14 03:19:44;;;;;;;13.40;6.63;;;;;;;;;;5052135;28;20114;-84
2021/06/14 03:22:10;;;;;;;11.82;6.78;;;;;;;;;;5052004;28;20076;-85
2021/06/14 03:24:36;;;;;;;12.65;6.85;;;;;;;;;;5053358;28;20110;-85
2021/06/14 03:27:02;;;;;;;14.95;6.15;;;;;;;;;;5053060;28;20465;-85
2021/06/14 03:29:28;;;;;;;11.00;5.85;;;;;;;;;;5051707;28;20032;-85
2021/06/14 03:31:53;;;;;;;12.40;6.10;;;;;;;;;;5051173;28;20094;-85
2021/06/14 03:34:19;;;;;;;12.85;6.25;;;;;;;;;;5051798;28;20021;-85
2021/06/14 03:36:45;;;;;;;16.52;6.28;;;;;;;;;;5053013;28;20064;-85
2021/06/14 03:39:11;;;;;;;13.35;6.50;;;;;;;;;;5051664;28;20345;-85
2021/06/14 03:41:46;;;;;;;11.70;6.40;;;;;;;;;;5051850;28;20036;-85
2021/06/14 03:44:11;;;;;;;13.93;6.53;;;;;;;;;;5049026;28;20116;-85
2021/06/14 03:46:37;;;;;;;13.45;7.00;;;;;;;;;;5051733;28;20100;-85
2021/06/14 03:49:03;;;;;;;13.77;6.78;;;;;;;;;;5051488;28;20380;-85
2021/06/14 03:51:28;;;;;;;15.65;6.30;;;;;;;;;;5051001;28;20044;-85
2021/06/14 03:53:56;;;;;;;14.07;6.50;;;;;;;;;;5051308;28;20021;-85
2021/06/14 03:56:22;;;;;;;12.57;6.03;;;;;;;;;;5051308;28;20377;-86
2021/06/14 03:58:47;;;;;;;17.10;6.35;;;;;;;;;;5051446;28;20021;-85
2021/06/14 04:01:12;;;;;;;11.75;6.03;;;;;;;;;;5051143;28;20032;-85
2021/06/14 04:03:38;;;;;;;15.45;6.45;;;;;;;;;;5051296;28;20017;-85
2021/06/14 04:06:03;;;;;;;12.00;6.40;;;;;;;;;;5051259;28;20020;-84
2021/06/14 04:08:29;;;;;;;12.40;6.22;;;;;;;;;;5051048;28;20053;-85
2021/06/14 04:10:54;;;;;;;16.17;6.57;;;;;;;;;;5051244;28;20024;-85
2021/06/14 04:13:19;;;;;;;12.85;5.95;;;;;;;;;;5050976;28;20029;-85
2021/06/14 04:15:45;;;;;;;12.68;6.07;;;;;;;;;;5051079;28;20052;-85
2021/06/14 04:18:10;;;;;;;17.25;6.93;;;;;;;;;;5051005;28;20102;-85
2021/06/14 04:20:35;;;;;;;14.35;7.07;;;;;;;;;;5050747;28;20040;-85
2021/06/14 04:23:00;;;;;;;12.50;7.07;;;;;;;;;;5050975;28;20093;-85
2021/06/14 04:25:26;;;;;;;18.30;7.15;;;;;;;;;;5050714;28;20108;-85
2021/06/14 04:27:51;;;;;;;15.23;6.85;;;;;;;;;;5050976;28;20017;-85
2021/06/14 04:30:16;;;;;;;13.07;6.70;;;;;;;;;;5050871;28;20017;-85
2021/06/14 04:32:43;;;;;;;14.52;6.78;;;;;;;;;;5050824;28;20021;-85
2021/06/14 04:35:08;;;;;;;14.77;7.70;;;;;;;;;;5050721;28;20020;-85
2021/06/14 04:37:33;;;;;;;14.02;6.97;;;;;;;;;;5050622;28;20383;-85
2021/06/14 04:39:59;;;;;;;16.40;6.80;;;;;;;;;;5050880;28;20037;-85
2021/06/14 04:42:28;;;;;;;13.82;7.35;;;;;;;;;;5050317;28;20024;-85
2021/06/14 04:44:54;;;;;;;18.83;7.40;;;;;;;;;;5050748;28;20028;-85
2021/06/14 04:47:19;;;;;;;19.13;7.45;;;;;;;;;;5052045;28;20021;-85
2021/06/14 04:49:44;;;;;;;27.25;9.27;;;;;;;;;;5050538;28;20341;-85
2021/06/14 04:52:10;;;;;;;23.27;8.60;;;;;;;;;;5050424;28;20155;-85
2021/06/14 04:54:35;;;;;;;20.00;8.75;;;;;;;;;;5050231;28;20067;-85
2021/06/14 04:57:00;;;;;;;18.85;8.05;;;;;;;;;;5051899;28;20020;-85
2021/06/14 04:59:25;;;;;;;19.77;8.35;;;;;;;;;;5050285;28;20017;-85
2021/06/14 05:01:51;;;;;;;21.88;8.95;;;;;;;;;;5050422;28;20036;-85
2021/06/14 05:04:16;;;;;;;18.42;8.60;;;;;;;;;;5050549;28;20021;-85
2021/06/14 05:06:41;;;;;;;24.50;9.23;;;;;;;;;;5050330;28;20387;-85
2021/06/14 05:09:06;;;;;;;26.42;9.52;;;;;;;;;;5050644;28;20039;-85
2021/06/14 05:11:32;;;;;;;22.10;8.63;;;;;;;;;;5050286;28;20472;-85
2021/06/14 05:13:57;;;;;;;26.63;8.45;;;;;;;;;;5050384;28;20388;-85
2021/06/14 05:16:23;;;;;;;28.95;9.25;;;;;;;;;;5050472;28;20147;-85
2021/06/14 05:18:48;;;;;;;22.90;7.88;;;;;;;;;;5051689;28;20017;-85
2021/06/14 05:21:13;;;;;;;18.38;8.13;;;;;;;;;;5050518;28;20067;-85
2021/06/14 05:23:38;;;;;;;24.73;8.18;;;;;;;;;;5050169;28;20020;-85
2021/06/14 05:26:03;;;;;;;18.83;7.50;;;;;;;;;;5050407;28;20028;-85
2021/06/14 05:28:29;;;;;;;22.30;7.88;;;;;;;;;;5051527;28;20021;-85
2021/06/14 05:30:54;;;;;;;27.65;8.82;;;;;;;;;;5051353;28;20021;-85
2021/06/14 05:33:19;;;;;;;21.40;8.15;;;;;;;;;;5049950;28;20024;-85
2021/06/14 05:35:44;;;;;;;23.10;8.20;;;;;;;;;;5049956;28;20920;-85
2021/06/14 05:38:10;;;;;;;20.88;8.48;;;;;;;;;;5050242;28;20017;-85
2021/06/14 05:40:35;;;;;;;23.65;7.03;;;;;;;;;;5050172;28;20491;-85
2021/06/14 05:43:00;;;;;;;20.80;7.22;;;;;;;;;;5049951;28;20025;-85
2021/06/14 05:45:25;;;;;;;19.20;7.75;;;;;;;;;;5050165;28;20115;-85
2021/06/14 05:47:50;;;;;;;17.17;7.05;;;;;;;;;;5050211;28;20029;-85
2021/06/14 05:50:16;;;;;;;25.77;8.05;;;;;;;;;;5051387;28;20601;-85
2021/06/14 05:52:42;;;;;;;18.45;7.80;;;;;;;;;;5050158;28;20469;-85
2021/06/14 05:55:07;;;;;;;23.15;7.47;;;;;;;;;;5052799;28;20044;-85
2021/06/14 05:57:33;;;;;;;20.52;7.15;;;;;;;;;;5053532;28;20032;-85
2021/06/14 05:59:58;;;;;;;28.45;8.05;;;;;;;;;;5053447;28;20032;-85
2021/06/14 06:02:23;;;;;;;14.82;7.15;;;;;;;;;;5086454;28;20017;-85
2021/06/14 06:04:48;;;;;;;21.08;7.90;;;;;;;;;;5052620;28;20123;-85
2021/06/14 06:07:13;;;;;;;15.73;6.78;;;;;;;;;;5053542;28;20040;-85
2021/06/14 06:09:39;;;;;;;14.73;6.38;;;;;;;;;;5052685;28;20486;-86
2021/06/14 06:12:04;;;;;;;17.40;6.25;;;;;;;;;;5054086;28;20023;-86
2021/06/14 06:14:29;;;;;;;14.98;5.63;;;;;;;;;;5053112;28;20040;-86
2021/06/14 06:16:55;;;;;;;19.08;5.82;;;;;;;;;;5053701;28;20017;-86
2021/06/14 06:19:20;;;;;;;22.67;6.70;;;;;;;;;;5053934;28;20036;-85
2021/06/14 06:21:45;;;;;;;17.05;6.38;;;;;;;;;;5052902;28;20028;-85
2021/06/14 06:24:11;;;;;;;12.98;6.18;;;;;;;;;;5053520;28;20021;-85
2021/06/14 06:26:36;;;;;;;15.07;5.55;;;;;;;;;;5054005;28;20033;-85
2021/06/14 06:29:02;;;;;;;17.38;6.07;;;;;;;;;;5054273;28;20422;-85
2021/06/14 06:31:27;;;;;;;11.93;5.35;;;;;;;;;;5053178;28;20029;-85
2021/06/14 06:33:53;;;;;;;12.10;6.28;;;;;;;;;;5052353;28;20029;-86
2021/06/14 06:36:18;;;;;;;15.07;6.60;;;;;;;;;;5052951;28;20021;-86
2021/06/14 06:38:43;;;;;;;17.13;6.50;;;;;;;;;;5052587;28;20013;-86
2021/06/14 06:41:08;;;;;;;13.35;6.50;;;;;;;;;;5051720;28;20110;-85
2021/06/14 06:43:35;;;;;;;12.20;6.25;;;;;;;;;;5053644;28;20031;-85
2021/06/14 06:46:00;;;;;;;12.95;5.43;;;;;;;;;;5061430;28;20041;-86
2021/06/14 06:48:25;;;;;;;17.70;5.63;;;;;;;;;;5052447;28;20120;-86
2021/06/14 06:50:51;;;;;;;11.98;5.72;;;;;;;;;;5053893;28;20032;-86
2021/06/14 06:53:17;;;;;;;14.05;5.68;;;;;;;;;;5052468;28;20143;-85
2021/06/14 06:55:43;;;;;;;12.23;5.00;;;;;;;;;;5052599;28;20029;-85
2021/06/14 06:58:08;;;;;;;15.13;6.35;;;;;;;;;;5052282;28;20360;-85
2021/06/14 07:00:33;;;;;;;15.80;5.22;;;;;;;;;;5052526;28;20432;-85
2021/06/14 07:02:59;;;;;;;13.60;5.38;;;;;;;;;;5052483;28;20032;-86
2021/06/14 07:05:24;;;;;;;11.23;5.03;;;;;;;;;;5052012;28;20503;-86
2021/06/14 07:07:49;;;;;;;15.07;5.40;;;;;;;;;;5052290;28;20161;-85
2021/06/14 07:10:14;;;;;;;9.55;4.50;;;;;;;;;;5053558;28;20371;-85
2021/06/14 07:12:40;;;;;;;16.02;5.43;;;;;;;;;;5052468;28;20020;-85
2021/06/14 07:15:12;;;;;;;13.48;5.03;;;;;;;;;;5053446;28;20036;-85
2021/06/14 07:17:42;;;;;;;13.95;5.78;;;;;;;;;;5052010;28;20024;-86
2021/06/14 07:20:08;;;;;;;8.75;4.82;;;;;;;;;;5053389;28;20017;-86
2021/06/14 07:22:34;;;;;;;10.75;4.68;;;;;;;;;;5051763;28;20029;-85
2021/06/14 07:24:59;;;;;;;17.65;4.90;;;;;;;;;;5052118;28;20535;-85
2021/06/14 07:27:24;;;;;;;14.38;4.70;;;;;;;;;;5051810;28;20108;-85
2021/06/14 07:29:49;;;;;;;11.55;4.28;;;;;;;;;;5051920;28;20020;-86
2021/06/14 07:32:14;;;;;;;11.98;4.95;;;;;;;;;;5052260;28;20534;-86
2021/06/14 07:34:40;;;;;;;12.32;4.55;;;;;;;;;;5051045;28;20029;-85
2021/06/14 07:37:05;;;;;;;14.35;5.47;;;;;;;;;;5051288;28;20013;-85
2021/06/14 07:39:30;;;;;;;13.57;5.05;;;;;;;;;;5050201;28;20053;-85
2021/06/14 07:41:55;;;;;;;14.38;5.45;;;;;;;;;;5051414;28;20017;-86
2021/06/14 07:44:21;;;;;;;13.75;5.00;;;;;;;;;;5051141;28;20492;-85
2021/06/14 07:46:46;;;;;;;10.23;4.68;;;;;;;;;;5051551;28;20032;-86
2021/06/14 07:49:11;;;;;;;11.20;4.57;;;;;;;;;;5051070;28;20020;-85
2021/06/14 07:51:36;;;;;;;13.02;4.60;;;;;;;;;;5051450;28;20028;-85
2021/06/14 07:54:01;;;;;;;11.43;4.40;;;;;;;;;;5055473;28;20472;-85
2021/06/14 07:56:27;;;;;;;11.02;4.90;;;;;;;;;;5052408;28;20452;-86
2021/06/14 07:58:52;;;;;;;14.30;4.97;;;;;;;;;;5051240;28;20443;-86
2021/06/14 08:01:17;;;;;;;16.63;5.13;;;;;;;;;;5051061;28;20017;-86
2021/06/14 08:03:43;;;;;;;13.13;5.20;;;;;;;;;;5052631;28;20033;-85
2021/06/14 08:06:08;;;;;;;14.30;4.03;;;;;;;;;;5050825;28;20500;-85
2021/06/14 08:08:33;;;;;;;12.18;4.05;;;;;;;;;;5051315;28;20032;-85
2021/06/14 08:11:00;;;;;;;10.98;4.55;;;;;;;;;;5051178;28;20027;-85
2021/06/14 08:13:25;;;;;;;7.70;3.90;;;;;;;;;;5052545;28;20036;-85
2021/06/14 08:15:51;;;;;;;8.30;4.03;;;;;;;;;;5052078;28;20025;-85
2021/06/14 08:25:59;;;;;;;11.02;4.40;;;;;;;;;;5052788;28;20067;-85
2021/06/14 08:28:25;;;;;;;11.65;4.82;;;;;;;;;;5051160;28;20029;-85
2021/06/14 08:30:50;;;;;;;15.40;3.80;;;;;;;;;;5050851;28;20017;-85
2021/06/14 08:33:15;;;;;;;11.40;4.30;;;;;;;;;;5050758;28;20017;-85
2021/06/14 08:35:41;;;;;;;13.70;4.50;;;;;;;;;;5052320;28;20029;-85
2021/06/14 08:38:06;;;;;;;13.30;4.30;;;;;;;;;;5050262;28;20013;-85
2021/06/14 08:40:32;;;;;;;8.40;4.15;;;;;;;;;;5050521;28;20040;-85
2021/06/14 08:43:08;;;;;;;15.38;4.07;;;;;;;;;;5051650;28;20380;-86
2021/06/14 08:45:35;;;;;;;9.43;4.50;;;;;;;;;;5050681;28;20032;-85
2021/06/14 08:48:00;;;;;;;10.10;3.60;;;;;;;;;;5050269;28;20048;-85
2021/06/14 08:50:25;;;;;;;14.55;3.63;;;;;;;;;;5050522;28;20021;-85
2021/06/14 08:52:51;;;;;;;10.35;3.88;;;;;;;;;;5050646;28;20028;-85
2021/06/14 08:55:17;;;;;;;13.68;3.95;;;;;;;;;;5049976;28;20074;-85
2021/06/14 08:57:42;;;;;;;9.73;3.58;;;;;;;;;;5050087;28;20079;-85
2021/06/14 09:00:09;;;;;;;14.82;3.70;;;;;;;;;;5050504;28;20377;-85
2021/06/14 09:02:34;;;;;;;11.40;3.40;;;;;;;;;;5084053;28;20032;-85
2021/06/14 09:04:59;;;;;;;9.43;3.80;;;;;;;;;;5050315;28;20017;-85
2021/06/14 09:07:25;;;;;;;9.23;3.88;;;;;;;;;;5050406;28;20029;-85
2021/06/14 09:09:50;;;;;;;5.30;3.38;;;;;;;;;;5050347;28;20017;-85
2021/06/14 09:12:15;;;;;;;9.40;3.58;;;;;;;;;;5049817;28;20123;-85
2021/06/14 09:14:41;;;;;;;9.15;3.40;;;;;;;;;;5050365;28;20181;-84
2021/06/14 09:17:11;;;;;;;12.13;3.65;;;;;;;;;;5051628;28;20017;-85
2021/06/14 09:19:40;;;;;;;11.65;3.28;;;;;;;;;;5083736;28;20025;-85
2021/06/14 09:22:16;;;;;;;14.40;3.38;;;;;;;;;;5073069;28;20017;-85
2021/06/14 09:25:00;;;;;;;11.60;3.55;;;;;;;;;;5050186;28;20029;-85
2021/06/14 09:27:27;;;;;;;12.40;3.13;;;;;;;;;;5044477;28;20033;-85
2021/06/14 09:29:52;;;;;;;10.32;3.22;;;;;;;;;;5053418;28;20025;-86
2021/06/14 09:32:17;;;;;;;12.73;3.80;;;;;;;;;;5053899;28;20025;-85
2021/06/14 09:34:42;;;;;;;10.75;3.97;;;;;;;;;;5054042;28;20476;-85
2021/06/14 09:37:10;;;;;;;10.15;3.50;;;;;;;;;;5054722;28;20126;-85
2021/06/14 09:39:39;;;;;;;7.00;2.95;;;;;;;;;;5053205;28;20400;-85
2021/06/14 09:42:21;;;;;;;10.65;3.33;;;;;;;;;;5053796;28;20040;-86
2021/06/14 09:44:47;;;;;;;6.47;2.83;;;;;;;;;;5047999;28;20111;-86
2021/06/14 09:47:12;;;;;;;9.85;3.60;;;;;;;;;;5053740;28;20495;-86
2021/06/14 09:49:38;;;;;;;10.18;3.40;;;;;;;;;;5053876;28;20020;-86
2021/06/14 09:52:04;;;;;;;9.68;3.60;;;;;;;;;;5053791;28;20416;-86
2021/06/14 09:54:30;;;;;;;9.85;3.40;;;;;;;;;;5054974;28;20364;-86
2021/06/14 09:56:56;;;;;;;6.63;3.15;;;;;;;;;;5053064;28;20104;-86
2021/06/14 09:59:28;;;;;;;8.73;3.42;;;;;;;;;;5053307;28;20436;-86
2021/06/14 10:02:10;;;;;;;12.73;3.95;;;;;;;;;;5054706;28;20017;-86
2021/06/14 10:04:35;;;;;;;6.97;3.13;;;;;;;;;;5050678;28;20460;-86
2021/06/14 10:07:10;;;;;;;6.97;3.25;;;;;;;;;;5054872;28;20028;-86
2021/06/14 10:09:40;;;;;;;8.52;3.45;;;;;;;;;;5050093;28;20031;-86
2021/06/14 10:12:14;;;;;;;11.27;3.70;;;;;;;;;;5053406;28;20032;-85
2021/06/14 10:14:47;;;;;;;11.65;3.45;;;;;;;;;;5054682;28;20083;-85
2021/06/14 10:17:12;;;;;;;15.30;3.67;;;;;;;;;;5053337;28;20433;-86
2021/06/14 10:19:38;;;;;;;6.97;3.42;;;;;;;;;;5047158;28;20082;-86
2021/06/14 10:22:03;;;;;;;7.32;3.05;;;;;;;;;;5054566;28;20021;-85
2021/06/14 10:24:28;;;;;;;7.63;3.13;;;;;;;;;;5053208;28;20074;-86
2021/06/14 10:26:54;;;;;;;7.55;2.90;;;;;;;;;;5052959;28;20025;-85
2021/06/14 10:29:19;;;;;;;11.32;3.40;;;;;;;;;;5054327;28;20103;-86
2021/06/14 10:31:47;;;;;;;13.93;4.30;;;;;;;;;;5052868;28;20097;-86
2021/06/14 10:34:12;;;;;;;10.88;3.70;;;;;;;;;;5052886;28;20068;-86
2021/06/14 10:36:39;;;;;;;9.75;3.55;;;;;;;;;;5052808;28;20060;-86
2021/06/14 10:39:04;;;;;;;5.63;3.22;;;;;;;;;;5052394;28;20079;-86
2021/06/14 10:41:30;;;;;;;16.58;3.85;;;;;;;;;;5052741;28;20025;-85
2021/06/14 10:43:55;;;;;;;10.82;3.78;;;;;;;;;;5052520;28;20112;-86
2021/06/14 10:46:24;;;;;;;14.05;4.22;;;;;;;;;;5050669;28;20051;-85
2021/06/14 10:48:55;;;;;;;10.32;3.47;;;;;;;;;;5048945;28;20085;-85
2021/06/14 10:51:21;;;;;;;16.97;3.93;;;;;;;;;;5052331;28;20503;-85
2021/06/14 10:53:52;;;;;;;12.75;3.00;;;;;;;;;;5052302;28;20050;-85
2021/06/14 10:56:23;;;;;;;8.77;3.67;;;;;;;;;;5051272;28;20013;-85
2021/06/14 10:59:02;;;;;;;11.02;3.05;;;;;;;;;;5081556;28;20372;-85
2021/06/14 11:01:28;;;;;;;8.52;3.00;;;;;;;;;;5051464;28;20029;-85
2021/06/14 11:03:53;;;;;;;5.82;2.90;;;;;;;;;;5052242;28;20497;-86
2021/06/14 11:06:23;;;;;;;6.40;3.53;;;;;;;;;;5052143;28;20081;-85
2021/06/14 11:08:58;;;;;;;8.77;3.65;;;;;;;;;;5051979;28;20628;-85
2021/06/14 11:11:24;;;;;;;11.13;3.28;;;;;;;;;;5051931;28;20029;-85
2021/06/14 11:13:50;;;;;;;7.57;3.00;;;;;;;;;;5051957;28;20029;-85
2021/06/14 11:16:15;;;;;;;8.18;3.00;;;;;;;;;;5052050;28;20558;-85
2021/06/14 11:18:41;;;;;;;12.43;3.55;;;;;;;;;;5051671;28;20217;-85
2021/06/14 11:21:08;;;;;;;5.80;3.00;;;;;;;;;;5052108;28;20053;-85
2021/06/14 11:23:33;;;;;;;9.10;3.38;;;;;;;;;;5052645;28;20032;-86
2021/06/14 11:25:59;;;;;;;8.10;2.80;;;;;;;;;;5053387;28;20333;-85
2021/06/14 11:28:31;;;;;;;7.30;3.25;;;;;;;;;;5051215;28;20013;-85
2021/06/14 11:30:56;;;;;;;9.82;3.13;;;;;;;;;;5051420;28;20070;-86
2021/06/14 11:33:24;;;;;;;6.53;2.88;;;;;;;;;;5051222;28;20464;-85
2021/06/14 11:35:49;;;;;;;9.30;2.85;;;;;;;;;;5051198;28;20029;-85
2021/06/14 11:38:19;;;;;;;7.05;2.80;;;;;;;;;;5052799;28;20017;-86
2021/06/14 11:40:49;;;;;;;6.85;2.83;;;;;;;;;;5051622;28;20052;-85
2021/06/14 11:43:14;;;;;;;12.80;2.92;;;;;;;;;;5058405;28;20031;-85
2021/06/14 11:45:42;;;;;;;11.30;3.20;;;;;;;;;;5051296;28;20142;-85
2021/06/14 11:48:24;;;;;;;8.82;2.88;;;;;;;;;;5049082;28;20013;-85
2021/06/14 11:50:51;;;;;;;6.68;2.53;;;;;;;;;;5050410;28;20021;-85
2021/06/14 11:53:16;;;;;;;10.75;3.50;;;;;;;;;;5051519;28;20079;-85
2021/06/14 11:55:44;;;;;;;11.95;2.97;;;;;;;;;;5052859;28;20017;-86
2021/06/14 11:58:09;;;;;;;14.20;3.45;;;;;;;;;;5051397;28;20021;-86
2021/06/14 12:00:43;;;;;;;7.40;2.80;;;;;;;;;;5051244;28;20039;-86
2021/06/14 12:03:15;;;;;;;12.13;3.13;;;;;;;;;;5051191;28;20012;-85
2021/06/14 12:05:40;;;;;;;5.57;2.47;;;;;;;;;;5051309;28;20383;-86
2021/06/14 12:08:08;;;;;;;14.15;2.83;;;;;;;;;;5050815;28;20092;-86
2021/06/14 12:10:33;;;;;;;9.43;2.78;;;;;;;;;;5051447;28;20025;-86
2021/06/14 12:13:03;;;;;;;9.95;2.80;;;;;;;;;;5051160;28;20044;-86
2021/06/14 12:15:28;;;;;;;10.63;2.70;;;;;;;;;;5050322;28;20032;-86
2021/06/14 12:17:53;;;;;;;10.57;2.70;;;;;;;;;;5050874;28;20388;-86
2021/06/14 12:20:23;;;;;;;9.55;2.85;;;;;;;;;;5050842;28;20099;-85
2021/06/14 12:22:57;;;;;;;10.38;3.10;;;;;;;;;;5049026;28;20100;-86
2021/06/14 12:25:22;;;;;;;10.13;2.80;;;;;;;;;;5051957;28;20028;-86
2021/06/14 12:27:56;;;;;;;10.68;3.00;;;;;;;;;;5050672;28;20029;-85
2021/06/14 12:30:25;;;;;;;4.47;2.50;;;;;;;;;;5049361;28;20021;-86
2021/06/14 12:32:51;;;;;;;7.78;2.67;;;;;;;;;;5072245;28;20112;-86
2021/06/14 12:35:16;;;;;;;5.35;2.80;;;;;;;;;;5050947;28;21334;-86
2021/06/14 12:37:42;;;;;;;9.65;2.63;;;;;;;;;;5050317;28;20021;-86
2021/06/14 12:40:12;;;;;;;6.13;2.90;;;;;;;;;;5049845;28;20356;-86
2021/06/14 12:42:37;;;;;;;6.47;3.03;;;;;;;;;;5051083;28;20428;-86
2021/06/14 12:45:10;;;;;;;11.48;3.17;;;;;;;;;;5051561;28;20260;-86
2021/06/14 12:47:40;;;;;;;8.63;2.95;;;;;;;;;;5070545;28;20455;-85
2021/06/14 12:50:05;;;;;;;6.53;3.08;;;;;;;;;;5049511;28;20021;-85
2021/06/14 12:52:31;;;;;;;6.20;2.83;;;;;;;;;;5051325;28;20055;-85
2021/06/14 12:54:57;;;;;;;8.07;2.97;;;;;;;;;;5049591;28;20023;-85
2021/06/14 12:57:33;;;;;;;9.57;3.08;;;;;;;;;;5049476;28;20510;-84
2021/06/14 12:59:58;;;;;;;7.97;2.70;;;;;;;;;;5075665;28;20017;-84
2021/06/14 13:02:23;;;;;;;8.77;3.30;;;;;;;;;;5050459;28;20063;-85
2021/06/14 13:04:49;;;;;;;13.00;2.92;;;;;;;;;;5054512;28;20025;-85
2021/06/14 13:07:15;;;;;;;9.13;3.03;;;;;;;;;;5054356;28;20036;-85
2021/06/14 13:09:44;;;;;;;8.45;2.97;;;;;;;;;;5054279;28;20031;-85
2021/06/14 13:12:09;;;;;;;6.05;2.75;;;;;;;;;;5054074;28;20021;-84
2021/06/14 13:14:34;;;;;;;6.38;2.53;;;;;;;;;;5053642;28;20025;-85
2021/06/14 13:17:00;;;;;;;10.13;2.90;;;;;;;;;;5054544;28;20021;-85
2021/06/14 13:19:26;;;;;;;6.38;2.65;;;;;;;;;;5054547;28;20028;-85
2021/06/14 13:21:55;;;;;;;6.00;2.33;;;;;;;;;;5054114;28;20021;-85
2021/06/14 13:24:20;;;;;;;11.52;2.47;;;;;;;;;;5053634;28;20021;-85
2021/06/14 13:26:48;;;;;;;6.38;2.60;;;;;;;;;;5054101;28;20059;-84
2021/06/14 13:29:19;;;;;;;11.20;2.97;;;;;;;;;;5053436;28;20039;-84
2021/06/14 13:31:45;;;;;;;7.00;2.55;;;;;;;;;;5053338;28;20036;-85
2021/06/14 13:34:35;;;;;;;9.82;2.53;;;;;;;;;;5054976;28;20372;-85
2021/06/14 13:36:57;;;;;;;7.28;2.47;;;;;;;;;;5051244;28;20104;-85
2021/06/14 13:39:32;;;;;;;6.05;2.35;;;;;;;;;;5055127;28;20098;-85
2021/06/14 13:42:03;;;;;;;8.00;2.50;;;;;;;;;;5053755;28;20017;-85
2021/06/14 13:44:28;;;;;;;9.75;2.65;;;;;;;;;;5053356;28;20039;-85
2021/06/14 13:46:54;;;;;;;16.35;2.65;;;;;;;;;;5053494;28;20108;-85
2021/06/14 13:49:32;;;;;;;5.05;2.33;;;;;;;;;;5053603;28;20045;-85
2021/06/14 13:52:03;;;;;;;4.32;2.58;;;;;;;;;;5047123;28;20108;-84
2021/06/14 13:54:28;;;;;;;8.68;2.80;;;;;;;;;;5052468;28;20025;-85
2021/06/14 13:56:54;;;;;;;12.50;2.75;;;;;;;;;;5053133;28;20020;-84
2021/06/14 13:59:23;;;;;;;6.15;2.53;;;;;;;;;;5053940;28;20020;-84
2021/06/14 14:01:49;;;;;;;4.60;2.40;;;;;;;;;;5053041;28;20056;-85
2021/06/14 14:04:19;;;;;;;5.18;2.50;;;;;;;;;;5053635;28;20044;-85
2021/06/14 14:06:44;;;;;;;11.85;2.88;;;;;;;;;;5054394;28;20059;-85
2021/06/14 14:09:10;;;;;;;3.92;2.13;;;;;;;;;;5053168;28;20044;-85
2021/06/14 14:11:37;;;;;;;6.88;1.80;;;;;;;;;;5052619;28;20476;-85
2021/06/14 14:14:02;;;;;;;8.05;2.47;;;;;;;;;;5052410;28;20491;-85
2021/06/14 14:16:27;;;;;;;5.82;2.17;;;;;;;;;;5054250;28;20100;-85
2021/06/14 14:18:54;;;;;;;4.50;2.08;;;;;;;;;;5053239;28;20025;-85
2021/06/14 14:21:19;;;;;;;5.82;2.30;;;;;;;;;;5053097;28;20460;-85
2021/06/14 14:23:44;;;;;;;7.35;2.15;;;;;;;;;;5052128;28;20031;-85
2021/06/14 14:26:09;;;;;;;10.68;2.00;;;;;;;;;;5052965;28;20025;-85
2021/06/14 14:28:34;;;;;;;6.23;1.90;;;;;;;;;;5054080;28;20029;-85
2021/06/14 14:31:00;;;;;;;4.75;2.08;;;;;;;;;;5053998;28;20293;-85
2021/06/14 14:33:25;;;;;;;6.53;1.67;;;;;;;;;;5052810;28;20044;-85
2021/06/14 14:35:56;;;;;;;4.63;2.05;;;;;;;;;;5052685;28;20021;-85
2021/06/14 14:38:22;;;;;;;4.53;2.10;;;;;;;;;;5053422;28;20025;-85